Time;durP1;ratioP1;P1;durP2;ratioP2;P2;SDS_P1;SDS_P2;PMS_P1;PMS_P2;Temp;Humidity;BMP_temperature;BMP_pressure;BME280_temperature;BME280_humidity;BME280_pressure;Samples;Min_cycle;Max_cycle;Signal;HPM_P1;HPM_P2
2022/07/04 00:03:34;;;;;;;8.85;3.25;;;;;;;;;;21259549;27;20092;-56
2022/07/04 00:13:37;;;;;;;7.15;4.10;;;;;;;;;;21257915;27;20134;-57
2022/07/04 00:23:39;;;;;;;8.35;3.70;;;;;;;;;;21257470;27;20093;-57
2022/07/04 00:33:41;;;;;;;12.48;4.22;;;;;;;;;;21256415;27;20058;-59
2022/07/04 00:43:42;;;;;;;9.50;3.97;;;;;;;;;;21256171;27;20039;-59
2022/07/04 00:53:45;;;;;;;17.65;10.50;;;;;;;;;;21254820;27;20055;-56
2022/07/04 01:03:49;;;;;;;16.58;5.07;;;;;;;;;;21254114;27;20054;-58
2022/07/04 01:13:51;;;;;;;13.65;4.35;;;;;;;;;;21252928;27;20126;-59
2022/07/04 01:23:56;;;;;;;17.58;5.78;;;;;;;;;;21252569;27;20047;-58
2022/07/04 01:34:01;;;;;;;9.93;4.65;;;;;;;;;;21251918;27;20055;-56
2022/07/04 01:44:06;;;;;;;12.52;4.50;;;;;;;;;;21252529;27;20546;-55
2022/07/04 01:54:17;;;;;;;9.90;4.10;;;;;;;;;;21250674;27;20051;-55
2022/07/04 02:04:26;;;;;;;8.25;4.07;;;;;;;;;;21249834;27;20082;-55
2022/07/04 02:14:43;;;;;;;11.27;4.90;;;;;;;;;;21249298;27;20082;-56
2022/07/04 02:24:52;;;;;;;10.70;4.22;;;;;;;;;;21248801;27;20130;-55
2022/07/04 02:34:59;;;;;;;12.52;4.25;;;;;;;;;;21248712;27;20131;-56
2022/07/04 02:45:01;;;;;;;10.00;4.00;;;;;;;;;;21248358;27;20480;-56
2022/07/04 02:55:05;;;;;;;9.73;4.55;;;;;;;;;;21247070;28;20044;-57
2022/07/04 03:05:08;;;;;;;12.38;4.38;;;;;;;;;;21246555;28;20047;-55
2022/07/04 03:15:12;;;;;;;10.00;4.20;;;;;;;;;;21246286;28;20070;-57
2022/07/04 03:25:15;;;;;;;8.75;4.22;;;;;;;;;;21245944;28;20181;-56
2022/07/04 03:35:17;;;;;;;9.32;4.30;;;;;;;;;;21255687;27;20426;-57
2022/07/04 03:45:20;;;;;;;7.95;3.85;;;;;;;;;;21261005;27;20055;-58
2022/07/04 03:55:23;;;;;;;7.53;3.60;;;;;;;;;;21260478;27;20043;-58
2022/07/04 04:05:30;;;;;;;5.30;3.20;;;;;;;;;;21240400;27;20091;-56
2022/07/04 04:15:32;;;;;;;9.73;4.38;;;;;;;;;;21258931;27;20047;-54
2022/07/04 04:25:33;;;;;;;8.40;3.25;;;;;;;;;;21258819;27;20054;-54
2022/07/04 04:35:35;;;;;;;9.70;3.53;;;;;;;;;;21258213;27;20047;-54
2022/07/04 04:45:37;;;;;;;8.90;3.25;;;;;;;;;;21255545;27;20062;-56
2022/07/04 04:55:39;;;;;;;10.30;4.20;;;;;;;;;;21255739;27;20043;-55
2022/07/04 05:05:40;;;;;;;;;;;;;;;;;;21254155;27;20051;-57
2022/07/04 05:15:43;;;;;;;9.15;3.50;;;;;;;;;;21253247;27;19970;-56
2022/07/04 05:25:45;;;;;;;8.50;4.07;;;;;;;;;;21252525;27;20059;-56
2022/07/04 05:35:48;;;;;;;10.02;4.32;;;;;;;;;;21251606;27;20486;-56
2022/07/04 05:45:50;;;;;;;10.40;3.75;;;;;;;;;;21250799;27;20047;-57
2022/07/04 05:55:53;;;;;;;13.40;3.65;;;;;;;;;;21250294;27;20043;-55
2022/07/04 06:05:55;;;;;;;7.35;3.75;;;;;;;;;;21249021;27;20100;-55
2022/07/04 06:15:57;;;;;;;;;;;;;;;;;;21248797;27;20043;-55
2022/07/04 06:25:59;;;;;;;8.37;2.80;;;;;;;;;;21247359;27;19920;-56
2022/07/04 06:36:01;;;;;;;9.15;2.85;;;;;;;;;;21247258;27;20039;-55
2022/07/04 06:46:03;;;;;;;11.75;3.97;;;;;;;;;;21246751;27;20138;-56
2022/07/04 06:56:06;;;;;;;9.43;3.88;;;;;;;;;;21247757;28;20046;-56
2022/07/04 07:06:08;;;;;;;10.75;4.07;;;;;;;;;;21249007;27;20129;-58
2022/07/04 07:16:10;;;;;;;11.27;4.05;;;;;;;;;;21262802;27;20068;-55
2022/07/04 07:26:13;;;;;;;8.00;3.83;;;;;;;;;;21262329;27;20414;-57
2022/07/04 07:36:15;;;;;;;7.93;3.33;;;;;;;;;;21262162;27;20092;-56
2022/07/04 07:46:18;;;;;;;9.48;3.83;;;;;;;;;;21259872;27;20051;-57
2022/07/04 07:56:20;;;;;;;5.82;3.38;;;;;;;;;;21260049;27;20050;-59
2022/07/04 08:06:22;;;;;;;12.57;3.45;;;;;;;;;;21258183;27;20134;-57
2022/07/04 08:16:24;;;;;;;9.32;3.05;;;;;;;;;;21256964;27;20047;-55
2022/07/04 08:26:26;;;;;;;7.97;3.05;;;;;;;;;;21259171;27;20486;-56
2022/07/04 08:36:28;;;;;;;11.65;3.53;;;;;;;;;;21256468;27;20096;-55
2022/07/04 08:46:31;;;;;;;7.10;4.10;;;;;;;;;;21255483;27;20054;-56
2022/07/04 09:06:54;;;;;;;7.60;3.38;;;;;;;;;;21253465;27;20055;-57
2022/07/04 09:16:56;;;;;;;7.85;3.20;;;;;;;;;;21253574;27;20047;-57
2022/07/04 09:26:58;;;;;;;10.63;4.03;;;;;;;;;;21253272;27;20402;-55
2022/07/04 09:37:01;;;;;;;10.02;4.20;;;;;;;;;;21250883;27;20046;-58
2022/07/04 09:47:20;;;;;;;7.78;3.17;;;;;;;;;;21250926;27;20057;-57
2022/07/04 09:57:23;;;;;;;8.55;3.17;;;;;;;;;;21251320;27;20055;-58
2022/07/04 10:07:43;;;;;;;7.93;3.40;;;;;;;;;;21250183;27;20558;-59
2022/07/04 10:17:45;;;;;;;9.13;3.88;;;;;;;;;;21248823;27;20047;-58
2022/07/04 10:27:50;;;;;;;6.28;2.83;;;;;;;;;;21248017;27;20051;-56
2022/07/04 10:38:04;;;;;;;11.73;3.53;;;;;;;;;;21205615;27;20039;-57
2022/07/04 10:48:09;;;;;;;5.78;3.60;;;;;;;;;;21142912;28;20083;-54
2022/07/04 10:58:10;;;;;;;10.10;3.33;;;;;;;;;;21161743;28;20044;-56
2022/07/04 11:08:12;;;;;;;8.60;2.78;;;;;;;;;;21210896;27;20050;-57
2022/07/04 11:18:14;;;;;;;5.93;3.53;;;;;;;;;;21245821;28;20043;-56
2022/07/04 11:28:25;;;;;;;8.80;3.30;;;;;;;;;;21245147;28;20521;-59
2022/07/04 11:38:43;;;;;;;8.40;3.53;;;;;;;;;;21246256;28;20492;-58
2022/07/04 11:48:44;;;;;;;8.32;3.03;;;;;;;;;;21244694;28;20051;-58
2022/07/04 11:58:46;;;;;;;5.28;2.17;;;;;;;;;;21258771;27;20126;-59
2022/07/04 12:08:48;;;;;;;6.45;2.90;;;;;;;;;;21258726;27;20103;-58
2022/07/04 12:18:49;;;;;;;10.45;3.88;;;;;;;;;;21258692;27;20047;-59
2022/07/04 12:28:51;;;;;;;4.43;2.50;;;;;;;;;;21257815;27;20054;-58
2022/07/04 12:38:55;;;;;;;5.35;2.17;;;;;;;;;;21257268;27;20047;-59
2022/07/04 12:48:58;;;;;;;4.65;2.00;;;;;;;;;;21254763;27;20050;-57
2022/07/04 12:59:01;;;;;;;7.82;2.30;;;;;;;;;;21254847;27;20050;-60
2022/07/04 13:09:04;;;;;;;4.93;2.50;;;;;;;;;;21253015;27;20055;-59
2022/07/04 13:19:05;;;;;;;5.07;2.65;;;;;;;;;;21253736;27;20047;-60
2022/07/04 13:29:07;;;;;;;4.63;2.47;;;;;;;;;;21252886;27;20051;-58
2022/07/04 13:39:09;;;;;;;9.20;2.35;;;;;;;;;;21251820;27;20044;-57
2022/07/04 13:49:11;;;;;;;4.55;2.95;;;;;;;;;;21231645;27;20543;-58
2022/07/04 13:59:13;;;;;;;5.97;2.45;;;;;;;;;;21250848;27;20077;-57
2022/07/04 14:09:15;;;;;;;4.55;2.10;;;;;;;;;;21248220;27;20146;-59
2022/07/04 14:19:16;;;;;;;4.10;1.80;;;;;;;;;;21247885;27;20047;-58
2022/07/04 14:29:18;;;;;;;3.83;1.88;;;;;;;;;;21161725;27;20051;-57
2022/07/04 14:39:20;;;;;;;4.25;1.67;;;;;;;;;;21162355;28;20052;-56
2022/07/04 14:49:21;;;;;;;5.20;2.22;;;;;;;;;;21162958;28;20051;-55
2022/07/04 14:59:23;;;;;;;3.83;1.73;;;;;;;;;;21162445;28;20090;-54
2022/07/04 15:09:25;;;;;;;4.97;2.78;;;;;;;;;;21223263;28;20422;-56
2022/07/04 15:19:26;;;;;;;5.53;2.20;;;;;;;;;;21246901;28;20071;-54
2022/07/04 15:29:28;;;;;;;6.00;2.30;;;;;;;;;;21253107;27;20172;-56
2022/07/04 15:39:30;;;;;;;5.43;2.33;;;;;;;;;;21241453;27;20073;-59
2022/07/04 15:49:32;;;;;;;3.55;2.05;;;;;;;;;;21226567;27;20384;-61
2022/07/04 15:59:34;;;;;;;11.60;8.05;;;;;;;;;;21246669;27;20121;-54
2022/07/04 16:09:36;;;;;;;6.55;2.28;;;;;;;;;;21117983;27;20062;-57
2022/07/04 16:19:38;;;;;;;3.80;1.80;;;;;;;;;;21088903;28;20047;-58
2022/07/04 16:29:40;;;;;;;6.25;2.47;;;;;;;;;;21088791;28;20105;-55
2022/07/04 16:39:43;;;;;;;5.50;2.50;;;;;;;;;;21133345;28;20055;-60
2022/07/04 16:49:46;;;;;;;5.35;2.55;;;;;;;;;;21168330;28;20479;-55
2022/07/04 16:59:48;;;;;;;5.47;2.95;;;;;;;;;;21166506;28;20067;-55
2022/07/04 17:09:50;;;;;;;10.90;8.00;;;;;;;;;;21261025;27;20055;-55
2022/07/04 17:19:55;;;;;;;3.53;2.15;;;;;;;;;;21251919;27;20047;-55
2022/07/04 17:29:57;;;;;;;11.65;3.80;;;;;;;;;;21288510;27;20046;-59
2022/07/04 17:40:00;;;;;;;5.97;3.53;;;;;;;;;;21320930;27;20129;-55
2022/07/04 17:50:03;;;;;;;7.45;2.75;;;;;;;;;;21262298;27;20051;-52
2022/07/04 18:00:05;;;;;;;6.25;3.22;;;;;;;;;;21270778;27;20139;-53
2022/07/04 18:10:11;;;;;;;7.35;2.67;;;;;;;;;;21223758;27;20138;-54
2022/07/04 18:20:13;;;;;;;4.00;2.00;;;;;;;;;;21110694;27;20055;-55
2022/07/04 18:30:15;;;;;;;5.88;3.00;;;;;;;;;;21243826;27;20051;-57
2022/07/04 18:50:38;;;;;;;6.05;2.63;;;;;;;;;;21185198;27;20414;-54
2022/07/04 19:00:40;;;;;;;5.35;4.07;;;;;;;;;;21183281;27;20375;-57
2022/07/04 19:10:42;;;;;;;6.65;3.50;;;;;;;;;;21168573;27;20088;-53
2022/07/04 19:20:45;;;;;;;8.27;4.00;;;;;;;;;;21176558;28;20039;-55
2022/07/04 19:30:47;;;;;;;6.68;4.22;;;;;;;;;;21212462;27;20450;-53
2022/07/04 19:40:49;;;;;;;15.02;13.52;;;;;;;;;;21178284;28;20039;-54
2022/07/04 19:50:51;;;;;;;5.97;4.18;;;;;;;;;;21156978;27;20443;-54
2022/07/04 20:00:53;;;;;;;6.80;4.95;;;;;;;;;;21167618;28;20040;-57
2022/07/04 20:10:56;;;;;;;12.07;5.78;;;;;;;;;;21137523;27;20142;-54
2022/07/04 20:20:58;;;;;;;12.05;8.43;;;;;;;;;;21129130;28;20047;-54
2022/07/04 20:31:00;;;;;;;18.98;14.32;;;;;;;;;;21155583;28;20051;-57
2022/07/04 20:41:03;;;;;;;8.93;4.60;;;;;;;;;;21170582;28;20438;-55
2022/07/04 20:51:05;;;;;;;9.18;4.78;;;;;;;;;;21171279;28;20043;-56
2022/07/04 21:01:07;;;;;;;9.32;5.50;;;;;;;;;;21170799;28;20075;-56
2022/07/04 21:11:10;;;;;;;7.15;4.07;;;;;;;;;;21169835;28;20087;-56
2022/07/04 21:21:15;;;;;;;9.23;4.40;;;;;;;;;;21168448;28;20102;-55
2022/07/04 21:31:17;;;;;;;7.93;5.20;;;;;;;;;;21167303;28;20047;-54
2022/07/04 21:41:20;;;;;;;7.90;5.28;;;;;;;;;;21167010;28;20044;-55
2022/07/04 21:51:22;;;;;;;18.25;11.43;;;;;;;;;;21165968;28;20096;-55
2022/07/04 22:01:24;;;;;;;8.75;5.80;;;;;;;;;;21165649;28;20093;-55
2022/07/04 22:11:26;;;;;;;6.35;4.45;;;;;;;;;;21240579;27;20141;-56
2022/07/04 22:21:28;;;;;;;8.88;4.18;;;;;;;;;;21250460;27;20126;-55
2022/07/04 22:31:30;;;;;;;7.93;4.07;;;;;;;;;;21248477;27;20105;-55
2022/07/04 22:41:32;;;;;;;8.52;4.35;;;;;;;;;;21248185;27;20046;-54
2022/07/04 22:51:34;;;;;;;8.90;4.20;;;;;;;;;;21247685;27;20051;-54
2022/07/04 23:01:37;;;;;;;8.52;4.35;;;;;;;;;;21247104;28;20039;-54
2022/07/04 23:11:39;;;;;;;8.13;4.35;;;;;;;;;;21246684;28;20054;-55
2022/07/04 23:21:41;;;;;;;8.77;5.05;;;;;;;;;;21247500;28;20099;-56
2022/07/04 23:31:44;;;;;;;7.90;4.45;;;;;;;;;;21247015;28;20051;-53
2022/07/04 23:41:46;;;;;;;10.73;3.92;;;;;;;;;;21245925;28;20074;-56
2022/07/04 23:51:48;;;;;;;7.68;3.85;;;;;;;;;;21254350;27;20051;-54
